createdAt,value
2022-08-01T00:00:48.473Z,18.71
2022-08-01T00:04:49.878Z,18.64
2022-08-01T00:08:51.398Z,18.59
2022-08-01T00:12:52.989Z,18.51
2022-08-01T00:16:54.436Z,18.36
2022-08-01T00:20:55.898Z,18.31
2022-08-01T00:24:57.409Z,18.26
2022-08-01T00:28:58.858Z,18.24
2022-08-01T00:33:00.327Z,18.17
2022-08-01T00:37:01.840Z,18.18
2022-08-01T00:41:03.514Z,18.12
2022-08-01T00:45:05.630Z,18.04
2022-08-01T00:49:07.257Z,17.93
2022-08-01T00:53:18.898Z,17.82
2022-08-01T00:57:39.972Z,17.76
2022-08-01T01:01:46.820Z,17.78
2022-08-01T01:06:14.049Z,17.76
2022-08-01T01:10:49.073Z,17.74
2022-08-01T01:15:16.647Z,17.63
2022-08-01T01:19:24.389Z,17.54
2022-08-01T01:23:55.509Z,17.53
2022-08-01T01:28:09.382Z,17.52
2022-08-01T01:32:15.481Z,17.51
2022-08-01T01:36:20.295Z,17.46
2022-08-01T01:40:24.762Z,17.44
2022-08-01T01:44:28.598Z,17.40
2022-08-01T01:48:30.281Z,17.38
2022-08-01T01:52:33.029Z,17.35
2022-08-01T01:56:36.193Z,17.29
2022-08-01T02:00:38.310Z,17.25
2022-08-01T02:04:43.509Z,17.27
2022-08-01T02:08:47.160Z,17.27
2022-08-01T02:12:51.190Z,17.33
2022-08-01T02:16:52.586Z,17.34
2022-08-01T02:20:56.673Z,17.34
2022-08-01T02:25:10.805Z,17.32
2022-08-01T02:29:19.180Z,17.22
2022-08-01T02:33:35.618Z,17.11
2022-08-01T02:37:41.899Z,17.08
2022-08-01T02:41:50.437Z,17.00
2022-08-01T02:45:55.085Z,16.98
2022-08-01T02:49:57.356Z,17.00
2022-08-01T02:53:59.956Z,17.05
2022-08-01T02:58:02.774Z,17.06
2022-08-01T03:02:06.144Z,16.97
2022-08-01T03:06:10.701Z,16.97
2022-08-01T03:10:14.017Z,16.96
2022-08-01T03:14:16.856Z,16.93
2022-08-01T03:18:19.358Z,16.96
2022-08-01T03:22:24.080Z,16.90
2022-08-01T03:26:29.644Z,16.89
2022-08-01T03:30:33.472Z,16.73
2022-08-01T03:34:35.399Z,16.66
2022-08-01T03:38:40.006Z,16.70
2022-08-01T03:42:51.206Z,16.74
2022-08-01T03:47:01.817Z,16.82
2022-08-01T03:51:04.905Z,16.81
2022-08-01T03:55:08.445Z,16.81
2022-08-01T03:59:10.611Z,16.79
2022-08-01T04:03:13.594Z,16.78
2022-08-01T04:07:32.000Z,16.76
2022-08-01T04:11:34.176Z,16.78
2022-08-01T04:15:35.784Z,16.82
2022-08-01T04:19:37.836Z,16.86
2022-08-01T04:23:42.701Z,16.89
2022-08-01T04:27:49.863Z,16.81
2022-08-01T04:31:55.461Z,16.81
2022-08-01T04:36:03.792Z,16.81
2022-08-01T04:40:08.149Z,16.78
2022-08-01T04:44:10.021Z,16.78
2022-08-01T04:48:12.209Z,16.84
2022-08-01T04:52:18.862Z,16.94
2022-08-01T04:56:23.771Z,17.12
2022-08-01T05:00:25.427Z,17.31
2022-08-01T05:04:27.183Z,17.55
2022-08-01T05:08:28.628Z,17.81
2022-08-01T05:12:30.234Z,18.01
2022-08-01T05:16:34.269Z,18.36
2022-08-01T05:20:36.005Z,18.75
2022-08-01T05:24:40.304Z,19.06
2022-08-01T05:28:43.378Z,19.14
2022-08-01T05:32:44.925Z,19.15
2022-08-01T05:36:47.332Z,19.18
2022-08-01T05:40:48.965Z,19.18
2022-08-01T05:44:52.136Z,19.21
2022-08-01T05:48:53.697Z,19.28
2022-08-01T05:52:55.242Z,19.35
2022-08-01T05:57:00.495Z,19.37
2022-08-01T06:01:02.697Z,19.46
2022-08-01T06:05:04.416Z,19.52
2022-08-01T06:09:05.808Z,19.53
2022-08-01T06:13:07.257Z,19.64
2022-08-01T06:17:08.732Z,19.69
2022-08-01T06:21:10.228Z,19.76
2022-08-01T06:25:11.622Z,19.92
2022-08-01T06:29:14.063Z,20.14
2022-08-01T06:33:15.466Z,20.38
2022-08-01T06:37:17.150Z,21.17
2022-08-01T06:41:18.903Z,21.68
2022-08-01T06:45:23.221Z,21.85
2022-08-01T06:49:25.361Z,21.95
2022-08-01T06:53:27.024Z,21.89
2022-08-01T06:57:28.555Z,21.95
2022-08-01T07:01:30.774Z,22.77
2022-08-01T07:05:36.577Z,23.66
2022-08-01T07:09:38.289Z,24.29
2022-08-01T07:13:45.687Z,24.17
2022-08-01T07:17:47.276Z,23.99
2022-08-01T07:21:50.033Z,24.14
2022-08-01T07:25:55.944Z,24.35
2022-08-01T07:29:59.580Z,24.46
2022-08-01T07:34:01.424Z,24.41
2022-08-01T07:38:02.797Z,24.39
2022-08-01T07:42:07.218Z,24.36
2022-08-01T07:46:09.978Z,24.44
2022-08-01T07:50:13.387Z,24.47
2022-08-01T07:54:15.081Z,24.37
2022-08-01T07:58:16.912Z,24.18
2022-08-01T08:02:18.560Z,24.13
2022-08-01T08:06:19.989Z,24.09
2022-08-01T08:10:21.468Z,23.99
2022-08-01T08:14:25.681Z,23.96
2022-08-01T08:18:34.469Z,23.87
2022-08-01T08:22:36.903Z,23.81
2022-08-01T08:26:38.759Z,23.71
2022-08-01T08:30:41.806Z,23.58
2022-08-01T08:34:43.781Z,23.51
2022-08-01T08:38:45.263Z,23.39
2022-08-01T08:42:48.503Z,23.28
2022-08-01T08:46:52.262Z,23.31
2022-08-01T08:50:54.321Z,23.39
2022-08-01T08:54:57.412Z,23.51
2022-08-01T08:58:59.245Z,23.70
2022-08-01T09:03:00.702Z,23.83
2022-08-01T09:07:04.974Z,23.97
2022-08-01T09:11:06.670Z,24.07
2022-08-01T09:15:08.514Z,24.18
2022-08-01T09:19:15.924Z,24.19
2022-08-01T09:23:54.090Z,24.18
2022-08-01T09:28:04.423Z,24.33
2022-08-01T09:32:07.381Z,24.51
2022-08-01T09:36:09.229Z,24.56
2022-08-01T09:40:14.767Z,24.82
2022-08-01T09:44:18.690Z,25.11
2022-08-01T09:48:55.341Z,25.42
2022-08-01T09:52:58.021Z,26.04
2022-08-01T09:57:16.176Z,26.20
2022-08-01T10:01:17.565Z,26.34
2022-08-01T10:05:21.350Z,26.39
2022-08-01T10:09:35.996Z,26.62
2022-08-01T10:13:41.841Z,26.54
2022-08-01T10:17:54.557Z,26.33
2022-08-01T10:22:00.209Z,26.32
2022-08-01T10:26:02.902Z,26.45
2022-08-01T10:30:19.983Z,26.86
2022-08-01T10:34:24.766Z,27.56
2022-08-01T10:38:28.222Z,28.14
2022-08-01T10:42:30.280Z,28.23
2022-08-01T10:46:32.076Z,28.34
2022-08-01T10:50:39.429Z,28.54
2022-08-01T10:54:52.245Z,28.28
2022-08-01T10:59:06.141Z,28.09
2022-08-01T11:03:12.813Z,27.87
2022-08-01T11:07:21.953Z,27.77
2022-08-01T11:11:27.365Z,27.67
2022-08-01T11:15:31.065Z,27.64
2022-08-01T11:20:09.649Z,27.79
2022-08-01T11:24:11.158Z,27.89
2022-08-01T11:28:15.588Z,27.63
2022-08-01T11:32:27.086Z,27.77
2022-08-01T11:36:55.956Z,27.43
2022-08-01T11:41:10.220Z,27.36
2022-08-01T11:45:18.105Z,27.55
2022-08-01T11:49:35.201Z,27.73
2022-08-01T11:53:47.318Z,27.49
2022-08-01T11:57:49.481Z,27.44
2022-08-01T12:01:51.239Z,27.50
2022-08-01T12:05:53.269Z,27.73
2022-08-01T12:09:59.370Z,27.90
2022-08-01T12:14:02.874Z,28.16
2022-08-01T12:18:06.990Z,28.21
2022-08-01T12:22:15.557Z,28.13
2022-08-01T12:26:29.153Z,28.25
2022-08-01T12:30:37.938Z,28.37
2022-08-01T12:34:39.784Z,28.52
2022-08-01T12:38:41.301Z,28.54
2022-08-01T12:42:44.768Z,28.35
2022-08-01T12:46:46.474Z,28.21
2022-08-01T12:50:53.301Z,28.09
2022-08-01T12:55:14.422Z,27.95
2022-08-01T12:59:23.821Z,27.89
2022-08-01T13:03:25.273Z,27.68
2022-08-01T13:07:46.029Z,27.65
2022-08-01T13:12:03.878Z,27.71
2022-08-01T13:16:08.586Z,27.86
2022-08-01T13:20:34.862Z,28.17
2022-08-01T13:24:36.313Z,28.20
2022-08-01T13:28:39.276Z,27.58
2022-08-01T13:32:41.661Z,27.36
2022-08-01T13:36:49.026Z,27.24
2022-08-01T13:40:59.230Z,27.16
2022-08-01T13:45:03.030Z,27.15
2022-08-01T13:49:15.946Z,26.97
2022-08-01T13:53:18.635Z,27.02
2022-08-01T13:57:20.150Z,27.11
2022-08-01T14:01:21.878Z,27.08
2022-08-01T14:05:23.367Z,26.98
2022-08-01T14:09:25.032Z,26.88
2022-08-01T14:13:36.981Z,26.75
2022-08-01T14:17:38.591Z,26.62
2022-08-01T14:21:40.010Z,26.60
2022-08-01T14:26:03.659Z,26.47
2022-08-01T14:30:08.057Z,26.35
2022-08-01T14:34:09.926Z,26.28
2022-08-01T14:38:11.455Z,26.19
2022-08-01T14:42:23.200Z,26.17
2022-08-01T14:46:24.684Z,26.04
2022-08-01T14:50:27.658Z,25.99
2022-08-01T14:54:29.589Z,25.85
2022-08-01T14:58:31.493Z,25.73
2022-08-01T15:02:33.009Z,25.67
2022-08-01T15:06:34.533Z,25.55
2022-08-01T15:10:36.041Z,25.48
2022-08-01T15:14:49.385Z,25.45
2022-08-01T15:18:50.775Z,25.43
2022-08-01T15:22:52.846Z,25.53
2022-08-01T15:26:54.430Z,25.72
2022-08-01T15:30:55.909Z,25.85
2022-08-01T15:34:57.733Z,26.02
2022-08-01T15:38:59.242Z,26.15
2022-08-01T15:43:01.099Z,26.25
2022-08-01T15:47:04.129Z,26.18
2022-08-01T15:51:05.823Z,26.09
2022-08-01T15:55:08.186Z,26.06
2022-08-01T15:59:09.842Z,26.09
2022-08-01T16:03:11.365Z,26.07
2022-08-01T16:07:12.971Z,26.14
2022-08-01T16:11:14.733Z,25.97
2022-08-01T16:15:16.510Z,25.86
2022-08-01T16:19:19.442Z,25.70
2022-08-01T16:23:21.217Z,25.65
2022-08-01T16:27:27.071Z,25.59
2022-08-01T16:31:36.641Z,25.52
2022-08-01T16:35:45.189Z,25.49
2022-08-01T16:39:48.289Z,25.41
2022-08-01T16:43:53.848Z,25.33
2022-08-01T16:47:56.841Z,25.25
2022-08-01T16:51:58.243Z,25.17
2022-08-01T16:56:00.090Z,25.09
2022-08-01T17:00:01.822Z,24.97
2022-08-01T17:04:03.429Z,24.83
2022-08-01T17:08:06.434Z,24.67
2022-08-01T17:12:08.539Z,24.61
2022-08-01T17:16:11.576Z,24.56
2022-08-01T17:20:13.082Z,24.47
2022-08-01T17:24:16.727Z,24.44
2022-08-01T17:28:18.337Z,24.40
2022-08-01T17:32:19.902Z,24.33
2022-08-01T17:36:21.474Z,24.29
2022-08-01T17:40:39.780Z,24.27
2022-08-01T17:44:41.837Z,24.21
2022-08-01T17:48:50.823Z,24.20
2022-08-01T17:52:52.417Z,24.16
2022-08-01T17:56:53.954Z,24.17
2022-08-01T18:00:55.366Z,24.15
2022-08-01T18:04:56.797Z,24.10
2022-08-01T18:08:59.710Z,24.09
2022-08-01T18:13:04.045Z,24.03
2022-08-01T18:17:08.281Z,23.96
2022-08-01T18:21:12.957Z,23.86
2022-08-01T18:25:14.805Z,23.77
2022-08-01T18:29:16.592Z,23.69
2022-08-01T18:33:24.906Z,23.60
2022-08-01T18:37:27.502Z,23.49
2022-08-01T18:41:34.426Z,23.42
2022-08-01T18:45:39.545Z,23.36
2022-08-01T18:49:43.973Z,23.27
2022-08-01T18:53:47.016Z,23.17
2022-08-01T18:57:48.574Z,23.11
2022-08-01T19:01:50.125Z,22.99
2022-08-01T19:05:51.682Z,22.79
2022-08-01T19:09:53.161Z,22.68
2022-08-01T19:13:55.418Z,22.56
2022-08-01T19:17:56.944Z,22.36
2022-08-01T19:21:58.449Z,22.17
2022-08-01T19:26:04.199Z,22.00
2022-08-01T19:30:07.096Z,21.80
2022-08-01T19:34:12.299Z,21.66
2022-08-01T19:38:15.196Z,21.52
2022-08-01T19:42:17.837Z,21.34
2022-08-01T19:46:19.696Z,21.17
2022-08-01T19:50:21.320Z,21.06
2022-08-01T19:54:29.798Z,20.89
2022-08-01T19:58:33.545Z,20.52
2022-08-01T20:02:36.482Z,20.32
2022-08-01T20:06:38.362Z,20.14
2022-08-01T20:10:41.029Z,20.13
2022-08-01T20:14:43.911Z,20.13
2022-08-01T20:18:45.397Z,20.07
2022-08-01T20:22:49.651Z,20.02
2022-08-01T20:26:54.573Z,19.87
2022-08-01T20:31:03.511Z,19.73
2022-08-01T20:35:08.437Z,19.69
2022-08-01T20:39:13.235Z,19.60
2022-08-01T20:43:21.226Z,19.46
2022-08-01T20:47:24.384Z,19.41
2022-08-01T20:51:27.641Z,19.33
2022-08-01T20:55:41.082Z,19.17
2022-08-01T20:59:55.421Z,19.04
2022-08-01T21:04:16.804Z,19.01
2022-08-01T21:08:42.809Z,18.91
2022-08-01T21:12:50.464Z,18.84
2022-08-01T21:17:00.190Z,18.81
2022-08-01T21:21:10.378Z,18.71
2022-08-01T21:25:17.798Z,18.66
2022-08-01T21:29:22.376Z,18.61
2022-08-01T21:33:26.429Z,18.51
2022-08-01T21:37:30.902Z,18.51
2022-08-01T21:42:04.141Z,18.45
2022-08-01T21:45:57.897Z,18.35
2022-08-01T21:50:02.430Z,18.29
2022-08-01T21:54:15.661Z,18.24
2022-08-01T21:58:42.095Z,18.15
2022-08-01T22:03:28.677Z,18.00
2022-08-01T22:07:34.793Z,17.89
2022-08-01T22:11:37.876Z,17.88
2022-08-01T22:15:59.911Z,17.79
2022-08-01T22:20:03.128Z,17.77
2022-08-01T22:24:06.565Z,17.69
2022-08-01T22:28:10.238Z,17.67
2022-08-01T22:32:14.661Z,17.61
2022-08-01T22:36:17.091Z,17.52
2022-08-01T22:40:18.506Z,17.43
2022-08-01T22:44:30.266Z,17.44
2022-08-01T22:48:41.461Z,17.33
2022-08-01T22:52:55.178Z,17.24
2022-08-01T22:57:01.283Z,17.21
2022-08-01T23:01:06.540Z,17.20
2022-08-01T23:05:12.014Z,17.19
2022-08-01T23:09:14.554Z,17.25
2022-08-01T23:13:17.473Z,17.25
2022-08-01T23:17:28.918Z,17.15
2022-08-01T23:21:59.027Z,17.13
2022-08-01T23:26:23.722Z,17.19
2022-08-01T23:30:27.952Z,17.19
2022-08-01T23:34:29.422Z,17.21
2022-08-01T23:38:30.926Z,17.28
2022-08-01T23:42:32.489Z,17.29
2022-08-01T23:46:33.898Z,17.31
2022-08-01T23:50:35.622Z,17.25
2022-08-01T23:54:37.269Z,17.21
2022-08-01T23:58:39.166Z,17.12
